CST,Max TemperatureF,Mean TemperatureF,Min TemperatureF,Max Dew PointF,MeanDew PointF,Min DewpointF,Max Humidity, Mean Humidity, Min Humidity, Max Sea Level PressureIn, Mean Sea Level PressureIn, Min Sea Level PressureIn, Max VisibilityMiles, Mean VisibilityMiles, Min VisibilityMiles, Max Wind SpeedMPH, Mean Wind SpeedMPH, Max Gust SpeedMPH,PrecipitationIn, CloudCover, Events, WindDirDegrees
2010-10-1,87,82,77,77,75,73,94,80,62,29.92,29.86,29.80,6,6,6,10,6,,0.00,6,,278
2010-10-2,89,80,71,75,71,70,100,73,52,29.94,29.88,29.83,6,6,6,12,7,,0.00,3,,293
2010-10-3,89,81,73,75,71,66,94,69,46,29.98,29.92,29.86,6,6,6,10,5,,0.00,3,,314
2010-10-4,89,81,73,77,73,70,94,77,55,30.02,29.97,29.92,6,6,6,10,5,,0.00,4,Rain,313
2010-10-5,84,78,73,75,73,72,94,82,66,30.03,29.98,29.94,6,6,1,15,7,28,0.00,5,Rain,318
2010-10-6,87,78,68,70,68,64,94,71,46,30.05,30.00,29.95,6,6,6,14,7,,0.00,2,,338
2010-10-7,86,77,68,75,70,66,94,76,51,30.07,30.01,29.95,6,6,6,10,4,,0.00,4,,316
2010-10-8,87,78,68,72,68,64,94,67,48,30.07,30.02,29.97,6,6,6,12,8,,0.00,2,,352
2010-10-9,86,78,69,73,70,68,94,72,55,30.06,30.00,29.95,6,6,6,9,4,,0.00,1,,13
2010-10-10,86,78,71,73,71,66,94,78,55,30.01,29.95,29.89,6,6,6,13,4,,0.00,5,,12
2010-10-11,86,78,71,75,72,70,94,78,62,29.95,29.91,29.86,6,6,6,12,4,,0.00,6,,16
2010-10-12,91,82,73,73,72,70,100,74,49,29.95,29.90,29.86,6,6,6,9,4,,0.00,3,,316
2010-10-13,91,81,71,73,71,68,94,71,46,30.02,29.96,29.91,6,6,6,13,5,,0.00,4,,290
2010-10-14,89,82,75,73,71,66,89,71,46,30.06,30.00,29.93,6,6,6,14,8,,0.00,6,Rain,293
2010-10-15,89,81,73,77,72,68,94,73,52,30.06,30.00,29.94,6,6,6,12,4,,0.00,5,,308
2010-10-16,86,78,69,73,71,68,94,77,58,30.06,30.02,29.98,6,6,6,12,3,,0.00,4,,6
2010-10-17,86,80,75,75,73,72,94,78,62,30.07,30.01,29.95,6,6,6,9,6,,0.00,6,,14
2010-10-18,87,81,75,75,72,70,94,76,55,30.00,29.94,29.87,6,6,6,9,3,,0.00,5,,49
2010-10-19,86,80,73,73,70,36,94,73,24,29.97,29.91,29.86,6,6,6,7,2,,0.00,4,Rain,29
2010-10-20,87,80,73,75,73,72,94,75,58,29.98,29.92,29.88,6,6,6,9,4,,0.00,5,,20
2010-10-21,87,80,73,75,71,68,94,74,52,30.00,29.95,29.88,6,6,6,12,6,,0.00,3,,11
2010-10-22,87,79,71,75,71,68,100,73,52,30.00,29.94,29.89,6,6,6,10,5,,0.00,4,,32
2010-10-23,86,80,75,77,75,73,100,87,66,30.01,29.94,29.88,6,6,2,9,4,,0.00,6,Rain,322
2010-10-24,78,76,73,77,75,73,100,96,94,29.94,29.81,29.63,6,4,1,37,10,62,0.00,6,Rain-Thunderstorm,358
2010-10-25,87,81,75,79,77,75,100,84,74,29.87,29.81,29.75,6,6,4,12,7,,0.00,5,Rain,120
2010-10-26,87,84,80,79,78,75,94,82,70,29.85,29.80,29.75,6,6,6,12,6,,0.00,3,,121
2010-10-27,89,84,80,79,78,77,94,79,66,29.98,29.90,29.80,6,6,6,10,7,,0.00,3,,108
2010-10-28,87,84,80,79,77,75,89,79,66,30.01,29.95,29.89,6,6,6,13,8,,0.00,4,,67
2010-10-29,87,81,75,77,75,73,94,80,62,30.04,29.97,29.91,6,6,6,9,6,,0.00,4,Rain-Thunderstorm,36
2010-10-30,86,80,75,75,74,73,94,79,66,30.03,29.97,29.91,6,6,6,10,4,,0.00,4,,35
2010-10-31,84,78,73,75,74,72,100,87,70,30.04,29.98,29.92,6,6,2,8,3,,0.00,5,Rain-Thunderstorm,299